Airfield :
LOGIN :

Register | Disclaimer

   EN    FR    IT 

 










Legend :    VFR   Marginal VFR   IFR   Intensive IFR   Very Intensive IFR
Visi :
Ceiling :
>= 8 km
>= 3000ft
5 to 8 km
1000 to 3000 ft
1500m to 5 km
500 to 1000 ft
800 to 1500m
200 to 500 ft
< 800m
< 200 ft
Symbols :   Thunderstorms  Fog  Heavy snow  Heavy precipitations  Wind > 20 kt
SIGMETs :     Misc.  Thunderstorms  Icing  Turbulence  Mountain Waves  Volcanic Ashes






- Airport Elevation : 72 ft
- IATA code : UDE


EHVK - Volkel Airbase

CURRENT METAR :
  • 151725Z AUTO 22012KT 200V260 9999 SCT054 SCT085 BKN091 07/03 Q1003 BLU

EXPIRED METARs :
  • 151655Z AUTO 22015KT 9999 BKN028 BKN031 OVC036 08/04 Q1003 BLU
  • 151626Z AUTO 22013KT 9999 -DZRA FEW029 SCT032 BKN049 07/04 Q1003 BLU
  • 151625Z AUTO 22013KT 190V250 9999 -RA FEW015CB SCT032 BKN043 07/04 Q1003 RERA REDZ BLU
  • 151555Z AUTO 24010KT 9999 -RADZ FEW016CB SCT029 OVC032 08/04 Q1002 BLU
  • 151525Z AUTO 21016KT 180V250 9999 -RA FEW016CB SCT033 BKN043 08/04 Q1002 BLU
  • 151455Z AUTO 22015KT 190V250 9999 FEW034 SCT040 BKN049 09/03 Q1001 BLU

TAF TAF EHVK
Valid from the 15 at 18:00 until the 16 at 06:00 UTC


151726Z 1518/1606 22010KT 9999 SCT025 BKN030
BECMG 1604/1606 18007KT



MET'MAP, your aeronautical weather chart ! - Copyright ORBIFLY December 2007 - Disclaimer

ORBIFLY MET'MAP TEAM :

Programming & Development : Alexandra Zaïnal
Concept & original design : Baudouin d'Aumeries
Assistance for programming : Marc-Olivier Méhu
Technical & hardware support : Manuel Goepfert

Contact : metmap@orbifly.com




SOURCES & CREDITS :

   NOAA